Terminal Aerodrome Forecast
Issued by NWS

Home | Current Version | Previous Version | Text Only | Print | Product List | Glossary On
Versions: 1 2 3 4 5 6 7 8 9 10 11 12 13 14
000
FTUS45 KTFX 181422 AAA
TAFHVR
TAF AMD
KHVR 181422Z 1814/1912 33020KT P6SM VCSH SCT035 BKN050 OVC080
      TEMPO 1814/1816 5SM -SHRA BKN035
     FM181800 32014KT P6SM SCT050 BKN090
     FM190000 25008KT P6SM SCT080 BKN120=

USA.gov is the U.S. government's official web portal to all federal, state and local government web resources and services.